Copper Mountain, CO

8:28 AM MDT on June 30, 2015 (GMT -0600)
Wildernest | | Change Station
CLOSE
Current Station
Personal Weather Station
Location: Silverthorne, CO
Elevation: 9567 ft
Nearby Weather Stations

Elev 9567 ft 39.62 °N, 106.10 °W | Updated 2 minutes ago

Clear
Clear
66.0 °F
Feels Like 66.0 °F
N
0.0
Wind Variable Wind from SSE

Today
High -- | Low -- °F
--% Chance of Precip.
Yesterday
High -- | Low -- °F
Precip. -- in
5:40 AM 8:35 PM
Waxing Gibbous, 97% visible
Pressure 30.41 in
Visibility 10.0 miles
Clouds Clear
Dew Point 46 °F
Humidity 49%
Rainfall 0.00 in
Snow Depth Not available.
UV 3 out of 12
Pollen 6.00 out of 12
Air Quality Not available.
Flu Activity Sporadic
METAR K20V 301415Z AUTO 00000KT 10SM CLR 13/06 A3041 RMK AO2

More Conditions Fewer Conditions

Pressure 30.41 in
Visibility 10.0 miles
Clouds Clear
Dew Point 46 °F
Humidity 49%
Rainfall 0.00 in
Snow Depth Not available.
UV 3 out of 12
Pollen 6.00 out of 12
Air Quality Not available.
Flu Activity Sporadic
METAR K20V 301415Z AUTO 00000KT 10SM CLR 13/06 A3041 RMK AO2

More Conditions Fewer Conditions

10-Day Weather Forecast

×

Almanac

Astronomy

Jun. 30, 2015 Rise Set
Actual Time
Civil Twilight
Nautical Twilight
Astronomical Twilight
Moon
Length of Visible Light
Length of Day
Tomorrow will be .
, % of the Moon is Illuminated

Today's Extremes

State Highs State Lows

Community

WunderPhotos

Upload Photos

1,834,008 photos uploaded!

WunderBlogs® & News

Nearby

Air Quality

  Air Quality AQ Index Pollutant
Not available.

Snow Depth

Station Depth Elevation

Earthquake Activity

City Distance Mag. Time & Date
Minimum magnitude displayed is 2.5.

Coastal Water Temperatures

Place Temperature

Stations

Nearby Weather Stations

Station Location Temp. Windchill Dew Point Humidity Wind Precip. Elev Updated Type